Time;durP1;ratioP1;P1;durP2;ratioP2;P2;SDS_P1;SDS_P2;PMS_P1;PMS_P2;Temp;Humidity;BMP_temperature;BMP_pressure;BME280_temperature;BME280_humidity;BME280_pressure;Samples;Min_cycle;Max_cycle;Signal;HPM_P1;HPM_P2
2021/04/24 00:00:26;;;;;;;9.82;1.85;;;6.80;53.80;;;;;;5096497;28;20020;-35
2021/04/24 00:02:53;;;;;;;1.90;1.70;;;6.80;52.80;;;;;;5096748;28;20016;-35
2021/04/24 00:05:28;;;;;;;10.68;2.65;;;6.80;52.70;;;;;;5097009;28;20371;-38
2021/04/24 00:07:57;;;;;;;10.13;3.63;;;6.70;52.30;;;;;;5096724;28;20032;-34
2021/04/24 00:10:23;;;;;;;4.43;1.98;;;6.60;52.20;;;;;;5096674;28;20020;-35
2021/04/24 00:12:49;;;;;;;5.63;2.80;;;6.60;52.00;;;;;;5096550;28;20035;-35
2021/04/24 00:15:15;;;;;;;7.43;2.25;;;6.60;51.80;;;;;;5096368;28;20426;-35
2021/04/24 00:17:42;;;;;;;5.00;1.88;;;6.50;52.20;;;;;;5094904;28;20059;-36
2021/04/24 00:20:11;;;;;;;10.40;2.58;;;6.50;52.30;;;;;;5096443;28;20407;-36
2021/04/24 00:22:37;;;;;;;2.90;1.80;;;6.50;52.30;;;;;;5094424;28;20069;-36
2021/04/24 00:25:04;;;;;;;5.25;2.22;;;6.30;52.60;;;;;;5096381;28;20375;-35
2021/04/24 00:27:30;;;;;;;3.65;1.90;;;6.50;52.50;;;;;;5094856;28;20031;-35
2021/04/24 00:29:55;;;;;;;10.00;1.90;;;6.50;52.40;;;;;;5096195;28;20380;-34
2021/04/24 00:32:21;;;;;;;4.22;2.00;;;6.40;52.60;;;;;;5094662;28;20031;-35
2021/04/24 00:34:47;;;;;;;7.00;1.70;;;6.40;52.90;;;;;;5096068;28;20042;-35
2021/04/24 00:37:13;;;;;;;3.20;1.73;;;6.30;53.30;;;;;;5096136;28;20515;-36
2021/04/24 00:39:38;;;;;;;5.30;2.35;;;6.20;53.80;;;;;;5095874;28;20016;-35
2021/04/24 00:42:05;;;;;;;6.10;2.10;;;6.20;54.10;;;;;;5095774;28;20028;-34
2021/04/24 00:44:30;;;;;;;5.72;2.40;;;6.20;54.60;;;;;;5096129;28;20189;-37
2021/04/24 00:46:56;;;;;;;3.90;1.83;;;6.10;55.00;;;;;;5095986;28;20023;-35
2021/04/24 00:49:22;;;;;;;4.22;2.42;;;6.20;55.10;;;;;;5095704;28;20127;-35
2021/04/24 00:51:48;;;;;;;3.47;2.33;;;6.10;55.70;;;;;;5094411;28;20020;-36
2021/04/24 00:54:13;;;;;;;5.50;2.65;;;6.00;56.00;;;;;;5095742;28;20048;-36
2021/04/24 00:56:39;;;;;;;5.10;2.13;;;6.10;56.20;;;;;;5094218;28;20073;-36
2021/04/24 00:59:05;;;;;;;9.00;2.90;;;5.90;56.70;;;;;;5095417;28;20357;-36
2021/04/24 01:01:30;;;;;;;3.17;1.95;;;6.00;56.80;;;;;;5094264;28;20093;-36
2021/04/24 01:03:57;;;;;;;5.47;3.10;;;5.80;57.40;;;;;;5094308;28;20016;-35
2021/04/24 01:06:22;;;;;;;6.15;2.78;;;5.90;57.70;;;;;;5095204;28;20497;-35
2021/04/24 01:08:48;;;;;;;5.57;3.00;;;5.90;57.80;;;;;;5095291;28;20100;-34
2021/04/24 01:11:14;;;;;;;5.32;2.42;;;5.90;58.00;;;;;;5095688;28;20494;-35
2021/04/24 01:13:40;;;;;;;5.35;2.80;;;5.90;58.20;;;;;;5095045;28;20130;-36
2021/04/24 01:16:05;;;;;;;6.78;2.50;;;5.80;58.60;;;;;;5095433;28;20028;-35
2021/04/24 01:18:31;;;;;;;13.55;3.08;;;5.80;59.00;;;;;;5095297;28;20024;-35
2021/04/24 01:20:58;;;;;;;9.43;2.75;;;5.70;59.20;;;;;;5094908;28;20099;-35
2021/04/24 01:23:25;;;;;;;4.10;2.97;;;5.70;59.50;;;;;;5094931;28;20022;-35
2021/04/24 01:25:50;;;;;;;6.97;3.53;;;5.80;59.50;;;;;;5095774;28;20352;-35
2021/04/24 01:28:16;;;;;;;7.63;3.90;;;5.70;59.70;;;;;;5093602;28;20028;-35
2021/04/24 01:30:45;;;;;;;6.80;4.18;;;5.60;60.30;;;;;;5095126;28;20380;-35
2021/04/24 01:33:14;;;;;;;4.97;2.47;;;5.70;60.40;;;;;;5093649;28;20032;-34
2021/04/24 01:35:42;;;;;;;9.75;3.70;;;5.70;60.50;;;;;;5092729;28;20032;-35
2021/04/24 01:38:10;;;;;;;6.07;2.75;;;5.60;60.80;;;;;;5094931;28;20024;-35
2021/04/24 01:40:36;;;;;;;10.80;3.70;;;5.50;61.40;;;;;;5094777;28;20028;-35
2021/04/24 01:43:02;;;;;;;7.82;4.22;;;5.50;61.60;;;;;;5095070;28;20491;-35
2021/04/24 01:45:29;;;;;;;7.35;3.35;;;5.60;61.80;;;;;;5094717;28;20020;-36
2021/04/24 01:47:55;;;;;;;10.85;4.57;;;5.60;61.70;;;;;;5095184;28;20522;-36
2021/04/24 01:50:25;;;;;;;8.55;2.97;;;5.40;62.50;;;;;;5093487;28;20062;-34
2021/04/24 01:52:53;;;;;;;8.05;4.18;;;5.50;62.70;;;;;;5093647;28;20058;-34
2021/04/24 01:55:22;;;;;;;5.68;3.15;;;5.40;62.90;;;;;;5094045;28;20031;-34
2021/04/24 01:57:50;;;;;;;6.70;3.45;;;5.40;63.10;;;;;;5093508;28;20044;-35
2021/04/24 02:00:23;;;;;;;9.13;3.72;;;5.40;63.50;;;;;;5094349;28;20024;-34
2021/04/24 02:02:50;;;;;;;7.38;3.65;;;5.30;63.50;;;;;;5094889;28;20024;-35
2021/04/24 02:05:17;;;;;;;14.75;4.55;;;5.30;63.90;;;;;;5094896;28;20031;-35
2021/04/24 02:07:51;;;;;;;10.60;3.80;;;5.30;64.10;;;;;;5094579;28;20035;-34
2021/04/24 02:10:17;;;;;;;5.68;3.30;;;5.40;63.90;;;;;;5094444;28;20381;-35
2021/04/24 02:12:43;;;;;;;10.77;4.63;;;5.50;63.50;;;;;;5094894;28;20134;-35
2021/04/24 02:15:08;;;;;;;8.07;4.60;;;5.40;64.10;;;;;;5093308;28;20062;-35
2021/04/24 02:17:35;;;;;;;7.47;3.45;;;5.40;64.10;;;;;;5094737;28;20379;-35
2021/04/24 02:20:00;;;;;;;10.70;4.05;;;5.30;64.70;;;;;;5094823;28;20095;-41
2021/04/24 02:22:27;;;;;;;8.75;4.18;;;5.30;64.80;;;;;;5093199;28;20118;-35
2021/04/24 02:24:58;;;;;;;9.25;5.30;;;5.30;64.70;;;;;;5093179;28;20020;-35
2021/04/24 02:27:26;;;;;;;9.52;3.92;;;5.30;65.30;;;;;;5093239;28;20034;-35
2021/04/24 02:29:54;;;;;;;8.40;3.90;;;5.30;66.00;;;;;;5094424;28;20028;-35
2021/04/24 02:32:22;;;;;;;5.72;3.47;;;5.20;66.10;;;;;;5093902;28;20016;-35
2021/04/24 02:34:48;;;;;;;11.63;3.75;;;5.30;66.10;;;;;;5093807;28;20472;-34
2021/04/24 02:37:15;;;;;;;7.55;4.88;;;5.20;66.80;;;;;;5093638;28;20118;-35
2021/04/24 02:39:45;;;;;;;9.70;5.18;;;5.30;66.90;;;;;;5092441;28;20035;-35
2021/04/24 02:42:18;;;;;;;15.43;5.28;;;5.30;66.60;;;;;;5093746;28;20129;-35
2021/04/24 02:44:44;;;;;;;11.75;4.70;;;5.30;67.10;;;;;;5093750;28;20057;-35
2021/04/24 02:47:11;;;;;;;9.23;4.10;;;5.20;67.50;;;;;;5093617;28;20031;-34
2021/04/24 02:49:37;;;;;;;6.97;3.78;;;5.20;67.90;;;;;;5091952;28;20397;-35
2021/04/24 02:52:04;;;;;;;7.72;5.05;;;5.20;67.60;;;;;;5093634;28;20020;-34
2021/04/24 02:54:30;;;;;;;7.80;4.13;;;5.20;68.20;;;;;;5093646;28;20024;-35
2021/04/24 02:56:56;;;;;;;9.48;4.95;;;5.10;68.30;;;;;;5093406;28;20048;-35
2021/04/24 02:59:22;;;;;;;10.25;4.72;;;5.00;69.20;;;;;;5092287;28;20101;-34
2021/04/24 03:01:49;;;;;;;15.80;4.65;;;5.10;69.10;;;;;;5093578;28;20020;-34
2021/04/24 03:04:15;;;;;;;14.02;5.30;;;5.20;69.00;;;;;;5093764;28;20073;-35
2021/04/24 03:06:44;;;;;;;10.50;4.60;;;5.20;69.30;;;;;;5093627;28;20582;-35
2021/04/24 03:09:10;;;;;;;21.25;5.38;;;5.00;69.90;;;;;;5093457;28;20020;-35
2021/04/24 03:11:37;;;;;;;14.65;5.53;;;5.00;70.40;;;;;;5093451;28;20030;-35
2021/04/24 03:14:04;;;;;;;10.68;5.18;;;4.90;70.60;;;;;;5093394;28;20023;-35
2021/04/24 03:16:30;;;;;;;9.15;4.50;;;4.90;71.20;;;;;;5092099;28;20024;-35
2021/04/24 03:18:56;;;;;;;11.95;5.40;;;4.90;70.80;;;;;;5092092;28;20031;-34
2021/04/24 03:21:25;;;;;;;16.10;5.50;;;4.90;71.10;;;;;;5093641;28;20095;-35
2021/04/24 03:23:52;;;;;;;12.57;5.05;;;4.80;71.50;;;;;;5093402;28;20073;-34
2021/04/24 03:26:18;;;;;;;16.92;5.75;;;5.00;71.40;;;;;;5093961;28;20330;-34
2021/04/24 03:28:44;;;;;;;16.02;5.68;;;4.90;71.50;;;;;;5093313;28;20032;-35
2021/04/24 03:31:10;;;;;;;16.77;6.10;;;5.00;71.70;;;;;;5093204;28;20384;-34
2021/04/24 03:33:37;;;;;;;10.70;5.68;;;5.10;71.20;;;;;;5093045;28;20031;-34
2021/04/24 03:36:03;;;;;;;9.35;5.03;;;5.10;71.50;;;;;;5093236;28;20035;-34
2021/04/24 03:38:29;;;;;;;13.13;4.75;;;5.00;71.70;;;;;;5092857;28;20032;-34
2021/04/24 03:40:55;;;;;;;18.17;5.47;;;5.00;71.80;;;;;;5092927;28;20020;-35
2021/04/24 03:43:20;;;;;;;11.48;5.18;;;5.10;71.80;;;;;;5092858;28;20491;-34
2021/04/24 03:45:46;;;;;;;9.05;5.60;;;5.10;72.10;;;;;;5093184;28;20525;-34
2021/04/24 03:48:12;;;;;;;12.70;4.45;;;5.10;72.10;;;;;;5091454;28;20024;-34
2021/04/24 03:50:37;;;;;;;12.18;5.70;;;5.20;71.40;;;;;;5093580;28;20063;-34
2021/04/24 03:53:03;;;;;;;10.43;5.57;;;5.00;71.80;;;;;;5093065;28;20055;-34
2021/04/24 03:55:29;;;;;;;15.77;5.32;;;4.80;72.70;;;;;;5091554;28;20495;-34
2021/04/24 03:57:55;;;;;;;8.88;5.72;;;4.70;73.30;;;;;;5093991;28;20079;-34
2021/04/24 04:00:24;;;;;;;13.52;5.55;;;4.60;73.80;;;;;;5095156;28;20035;-34
2021/04/24 04:02:51;;;;;;;13.30;5.57;;;4.70;73.50;;;;;;5096608;28;20027;-34
2021/04/24 04:05:19;;;;;;;11.90;4.75;;;4.70;73.90;;;;;;5096600;28;20035;-35
2021/04/24 04:07:45;;;;;;;10.95;5.55;;;4.70;73.90;;;;;;5096676;28;20051;-34
2021/04/24 04:10:13;;;;;;;11.10;6.35;;;4.70;74.00;;;;;;5096664;28;20027;-35
2021/04/24 04:12:40;;;;;;;10.55;4.75;;;4.60;74.40;;;;;;5096108;28;20107;-34
2021/04/24 04:15:07;;;;;;;10.95;5.43;;;4.60;74.50;;;;;;5096240;28;20392;-34
2021/04/24 04:17:33;;;;;;;8.15;4.22;;;4.60;74.70;;;;;;5096043;28;20027;-34
2021/04/24 04:19:59;;;;;;;8.70;5.57;;;4.60;74.80;;;;;;5096437;28;20016;-34
2021/04/24 04:22:25;;;;;;;14.52;6.13;;;4.70;74.60;;;;;;5096078;28;20103;-34
2021/04/24 04:24:51;;;;;;;20.77;5.82;;;4.60;74.90;;;;;;5096140;28;20025;-34
2021/04/24 04:27:17;;;;;;;17.65;5.57;;;4.60;75.10;;;;;;5095888;28;20114;-34
2021/04/24 04:29:43;;;;;;;16.17;6.22;;;4.60;75.00;;;;;;5094940;28;20028;-35
2021/04/24 04:32:09;;;;;;;13.43;5.72;;;4.50;75.30;;;;;;5094629;28;20073;-34
2021/04/24 04:34:34;;;;;;;11.73;5.97;;;4.60;75.00;;;;;;5095841;28;20028;-34
2021/04/24 04:37:00;;;;;;;13.60;5.53;;;4.60;75.10;;;;;;5095900;28;20038;-34
2021/04/24 04:39:26;;;;;;;14.93;5.97;;;4.50;75.40;;;;;;5096061;28;20089;-34
2021/04/24 04:41:52;;;;;;;14.75;5.78;;;4.60;75.60;;;;;;5095633;28;20020;-34
2021/04/24 04:44:17;;;;;;;11.30;4.80;;;4.50;75.70;;;;;;5095578;28;20024;-34
2021/04/24 04:46:43;;;;;;;15.85;6.15;;;4.50;75.90;;;;;;5095579;28;20052;-34
2021/04/24 04:49:09;;;;;;;10.35;6.03;;;4.50;76.00;;;;;;5095430;28;20147;-34
2021/04/24 04:51:35;;;;;;;12.48;6.32;;;4.50;75.90;;;;;;5094170;28;20048;-35
2021/04/24 04:54:00;;;;;;;7.53;4.57;;;4.60;75.70;;;;;;5094016;28;20039;-34
2021/04/24 04:56:26;;;;;;;17.77;6.60;;;4.60;75.60;;;;;;5095246;28;20060;-34
2021/04/24 04:58:52;;;;;;;13.93;5.60;;;4.60;75.80;;;;;;5095268;28;20076;-34
2021/04/24 05:01:20;;;;;;;13.88;6.70;;;4.70;75.40;;;;;;5093917;28;20460;-35
2021/04/24 05:03:45;;;;;;;17.58;6.45;;;4.70;75.30;;;;;;5095311;28;20035;-34
2021/04/24 05:06:11;;;;;;;14.02;7.28;;;4.90;75.60;;;;;;5095812;28;20020;-34
2021/04/24 05:08:36;;;;;;;20.27;7.82;;;4.90;74.60;;;;;;5094956;28;20081;-34
2021/04/24 05:11:06;;;;;;;19.77;7.50;;;4.90;75.00;;;;;;5094974;28;20042;-34
2021/04/24 05:13:32;;;;;;;22.63;7.50;;;5.00;74.60;;;;;;5094992;28;20031;-36
2021/04/24 05:15:58;;;;;;;17.77;6.90;;;5.20;74.40;;;;;;5095011;28;20073;-34
2021/04/24 05:18:24;;;;;;;15.23;6.65;;;5.20;74.20;;;;;;5095104;28;20464;-34
2021/04/24 05:20:49;;;;;;;12.07;6.45;;;5.20;74.50;;;;;;5095119;28;20070;-34
2021/04/24 05:23:15;;;;;;;18.83;8.48;;;5.10;74.80;;;;;;5094791;28;20016;-34
2021/04/24 05:25:41;;;;;;;16.63;7.13;;;5.30;74.50;;;;;;5095487;28;20036;-34
2021/04/24 05:28:07;;;;;;;22.77;7.40;;;5.30;74.10;;;;;;5094797;28;20031;-35
2021/04/24 05:30:32;;;;;;;18.77;6.97;;;5.50;73.90;;;;;;5094727;28;20090;-34
2021/04/24 05:32:58;;;;;;;18.85;7.97;;;5.50;74.00;;;;;;5094858;28;20399;-34
2021/04/24 05:35:25;;;;;;;14.32;7.30;;;5.50;74.10;;;;;;5094455;28;20020;-34
2021/04/24 05:37:52;;;;;;;15.10;6.78;;;5.60;73.80;;;;;;5094479;28;20040;-36
2021/04/24 05:40:18;;;;;;;16.75;7.72;;;5.60;74.10;;;;;;5094413;28;20111;-34
2021/04/24 05:42:44;;;;;;;18.55;8.18;;;5.70;73.70;;;;;;5093140;28;20029;-34
2021/04/24 05:45:11;;;;;;;18.45;8.45;;;5.80;73.30;;;;;;5095036;28;20024;-34
2021/04/24 05:47:45;;;;;;;14.50;7.35;;;5.80;73.10;;;;;;5094370;28;20031;-36
2021/04/24 05:50:12;;;;;;;21.80;7.95;;;5.80;73.30;;;;;;5093878;28;20044;-34
2021/04/24 05:52:38;;;;;;;18.13;8.52;;;5.80;73.40;;;;;;5094591;28;20032;-34
2021/04/24 05:55:06;;;;;;;23.85;8.32;;;5.90;73.00;;;;;;5093979;28;20024;-34
2021/04/24 05:57:32;;;;;;;13.07;6.68;;;6.00;72.60;;;;;;5094206;28;20016;-34
2021/04/24 05:59:58;;;;;;;14.90;5.85;;;6.00;73.00;;;;;;5093798;28;20028;-34
2021/04/24 06:02:24;;;;;;;12.00;6.03;;;6.00;73.10;;;;;;5092525;28;20043;-34
2021/04/24 06:04:49;;;;;;;12.82;6.60;;;6.10;73.00;;;;;;5094101;28;20024;-33
2021/04/24 06:07:15;;;;;;;12.85;7.00;;;6.30;72.50;;;;;;5093700;28;20062;-35
2021/04/24 06:09:41;;;;;;;14.60;6.07;;;6.20;72.50;;;;;;5094014;28;20380;-36
2021/04/24 06:12:08;;;;;;;15.43;7.80;;;6.20;72.70;;;;;;5093686;28;20028;-36
2021/04/24 06:14:34;;;;;;;13.20;6.03;;;6.30;72.40;;;;;;5093919;28;20472;-36
2021/04/24 06:17:00;;;;;;;15.73;6.43;;;6.30;72.20;;;;;;5093620;28;20169;-34
2021/04/24 06:19:27;;;;;;;12.13;6.38;;;6.50;71.90;;;;;;5093445;28;20102;-35
2021/04/24 06:21:53;;;;;;;12.63;5.63;;;6.50;71.90;;;;;;5093086;28;20024;-34
2021/04/24 06:24:18;;;;;;;17.60;6.43;;;6.50;71.50;;;;;;5093794;28;20059;-35
2021/04/24 06:26:44;;;;;;;17.38;6.32;;;6.50;71.60;;;;;;5093326;28;20081;-34
2021/04/24 06:29:10;;;;;;;21.40;7.97;;;6.60;71.50;;;;;;5092041;28;20030;-34
2021/04/24 06:31:35;;;;;;;21.58;6.07;;;6.70;71.20;;;;;;5093265;28;20036;-35
2021/04/24 06:34:01;;;;;;;11.65;6.13;;;6.90;70.60;;;;;;5093254;28;20024;-35
2021/04/24 06:36:27;;;;;;;12.23;6.13;;;7.10;69.80;;;;;;5093336;28;20020;-34
2021/04/24 06:38:54;;;;;;;9.02;4.63;;;7.10;69.60;;;;;;5093197;28;20032;-34
2021/04/24 06:41:20;;;;;;;11.10;5.20;;;7.10;69.50;;;;;;5093635;28;20020;-34
2021/04/24 06:43:46;;;;;;;17.38;5.93;;;6.90;70.40;;;;;;5093282;28;20135;-35
2021/04/24 06:46:11;;;;;;;12.60;5.68;;;6.80;70.80;;;;;;5092955;28;20539;-35
2021/04/24 06:48:37;;;;;;;11.32;5.22;;;7.00;70.10;;;;;;5092934;28;20126;-35
2021/04/24 06:51:03;;;;;;;11.88;5.15;;;7.10;69.50;;;;;;5092938;28;20422;-35
2021/04/24 06:53:29;;;;;;;13.75;5.50;;;7.00;70.00;;;;;;5093039;28;20027;-35
2021/04/24 06:55:55;;;;;;;12.15;5.35;;;7.10;69.90;;;;;;5093048;28;20035;-35
2021/04/24 06:58:23;;;;;;;12.18;4.90;;;7.20;69.80;;;;;;5093279;28;20113;-35
2021/04/24 07:00:49;;;;;;;10.05;5.63;;;7.30;69.10;;;;;;5093194;28;20028;-35
2021/04/24 07:03:14;;;;;;;12.05;5.00;;;7.10;69.90;;;;;;5093011;28;20068;-35
2021/04/24 07:05:40;;;;;;;11.50;6.15;;;7.30;69.40;;;;;;5093035;28;20043;-35
2021/04/24 07:08:05;;;;;;;11.65;5.70;;;7.20;69.60;;;;;;5092942;28;20079;-35
2021/04/24 07:10:31;;;;;;;8.88;4.55;;;7.30;69.70;;;;;;5093103;28;20379;-35
2021/04/24 07:12:57;;;;;;;11.32;5.25;;;7.40;68.40;;;;;;5092681;28;20099;-35
2021/04/24 07:15:22;;;;;;;10.90;4.60;;;7.50;68.40;;;;;;5092986;28;20089;-35
2021/04/24 07:17:48;;;;;;;14.70;6.47;;;7.70;68.20;;;;;;5093389;28;20108;-35
2021/04/24 07:20:14;;;;;;;8.07;4.20;;;7.80;67.20;;;;;;5093239;28;20051;-35
2021/04/24 07:22:40;;;;;;;9.25;4.65;;;7.70;67.10;;;;;;5093371;28;20078;-35
2021/04/24 07:25:07;;;;;;;7.75;4.00;;;7.80;66.40;;;;;;5092865;28;20103;-34
2021/04/24 07:27:33;;;;;;;14.63;4.68;;;8.00;64.80;;;;;;5093055;28;20059;-35
2021/04/24 07:29:59;;;;;;;11.35;5.75;;;8.20;63.80;;;;;;5091821;28;20032;-35
2021/04/24 07:32:25;;;;;;;11.93;5.40;;;8.40;63.30;;;;;;5093428;28;20454;-35
2021/04/24 07:34:50;;;;;;;5.53;3.25;;;8.40;61.90;;;;;;5096725;28;20053;-35
2021/04/24 07:37:16;;;;;;;9.70;4.90;;;8.40;62.20;;;;;;5095389;28;20077;-35
2021/04/24 07:39:42;;;;;;;11.93;3.67;;;8.50;62.20;;;;;;5096529;28;20019;-35
2021/04/24 07:42:08;;;;;;;8.25;3.80;;;8.50;61.30;;;;;;5096359;28;20016;-34
2021/04/24 07:44:37;;;;;;;13.35;6.10;;;8.40;61.60;;;;;;5095027;28;20058;-35
2021/04/24 07:47:03;;;;;;;14.32;5.38;;;8.60;61.30;;;;;;5096484;28;20073;-35
2021/04/24 07:49:29;;;;;;;10.90;4.43;;;8.70;60.40;;;;;;5096272;28;20503;-35
2021/04/24 07:51:55;;;;;;;7.05;4.00;;;8.30;60.20;;;;;;5096469;28;20012;-35
2021/04/24 07:54:20;;;;;;;8.45;3.50;;;8.70;60.20;;;;;;5095992;28;20059;-35
2021/04/24 07:56:46;;;;;;;11.23;4.40;;;9.00;57.60;;;;;;5096198;28;20026;-35
2021/04/24 07:59:12;;;;;;;8.52;3.40;;;8.60;58.70;;;;;;5096619;28;20031;-35
2021/04/24 08:01:39;;;;;;;16.30;4.30;;;8.80;58.70;;;;;;5095623;28;20048;-35
2021/04/24 08:04:06;;;;;;;10.00;4.93;;;9.50;57.40;;;;;;5095793;28;20073;-35
2021/04/24 08:06:32;;;;;;;8.68;3.33;;;10.10;56.40;;;;;;5096299;28;20082;-35
2021/04/24 08:08:58;;;;;;;9.30;4.18;;;10.20;54.80;;;;;;5096105;28;20032;-35
2021/04/24 08:11:23;;;;;;;13.23;4.30;;;10.10;55.20;;;;;;5096024;28;20028;-35
2021/04/24 08:13:49;;;;;;;11.13;4.95;;;11.20;51.70;;;;;;5096255;28;20054;-35
2021/04/24 08:16:15;;;;;;;9.98;4.03;;;10.90;51.60;;;;;;5096161;28;20047;-35
2021/04/24 08:18:41;;;;;;;10.00;4.40;;;10.70;52.50;;;;;;5096118;28;20082;-35
2021/04/24 08:21:07;;;;;;;7.47;4.15;;;10.50;54.20;;;;;;5095989;28;20115;-36
2021/04/24 08:23:33;;;;;;;5.57;3.10;;;11.00;52.00;;;;;;5095853;28;20357;-35
2021/04/24 08:25:59;;;;;;;6.97;3.60;;;11.70;48.90;;;;;;5096122;28;20041;-35
2021/04/24 08:28:24;;;;;;;7.43;4.97;;;11.40;49.40;;;;;;5095843;28;20134;-35
2021/04/24 08:30:50;;;;;;;13.63;3.80;;;11.60;49.60;;;;;;5095713;28;20113;-34
2021/04/24 08:33:16;;;;;;;6.93;3.78;;;11.70;48.80;;;;;;5095717;28;20032;-35
2021/04/24 08:35:42;;;;;;;6.25;3.38;;;11.40;48.80;;;;;;5096191;28;20044;-35
2021/04/24 08:38:08;;;;;;;8.75;2.55;;;11.20;48.90;;;;;;5094676;28;20024;-35
2021/04/24 08:40:34;;;;;;;6.20;3.35;;;12.00;47.00;;;;;;5096385;28;20081;-35
2021/04/24 08:43:02;;;;;;;6.43;3.17;;;11.60;47.30;;;;;;5094736;28;20199;-35
2021/04/24 08:45:29;;;;;;;7.03;3.33;;;11.60;46.90;;;;;;5095667;28;20024;-36
2021/04/24 08:47:55;;;;;;;7.07;3.65;;;11.50;47.20;;;;;;5095727;28;20111;-36
2021/04/24 08:50:24;;;;;;;5.32;3.22;;;11.00;48.10;;;;;;5095148;28;20511;-35
2021/04/24 08:52:52;;;;;;;5.72;3.05;;;11.20;48.00;;;;;;5093693;28;20028;-35
2021/04/24 08:55:22;;;;;;;8.27;3.10;;;12.50;44.70;;;;;;5094776;28;20074;-35
2021/04/24 08:57:48;;;;;;;7.03;3.30;;;12.50;44.50;;;;;;5095249;28;20032;-35
2021/04/24 09:00:17;;;;;;;4.53;3.00;;;12.70;45.00;;;;;;5094936;28;20460;-35
2021/04/24 09:02:44;;;;;;;6.53;2.95;;;13.10;42.50;;;;;;5095391;28;20027;-36
2021/04/24 09:05:12;;;;;;;5.25;2.47;;;12.70;43.20;;;;;;5094893;28;20024;-36
2021/04/24 09:07:38;;;;;;;5.95;3.55;;;12.50;43.10;;;;;;5094947;28;20027;-36
2021/04/24 09:10:05;;;;;;;17.13;3.30;;;12.20;45.50;;;;;;5094832;28;20472;-36
2021/04/24 09:12:35;;;;;;;10.05;4.05;;;12.80;43.70;;;;;;5095035;28;20492;-36
2021/04/24 09:15:13;;;;;;;;;;;12.80;44.00;;;;;;5093986;28;20468;-36
2021/04/24 09:17:55;;;;;;;6.90;4.05;;;12.30;44.40;;;;;;5094840;28;20011;-36
2021/04/24 09:20:23;;;;;;;7.50;3.58;;;11.90;45.30;;;;;;5095013;28;20460;-36
2021/04/24 09:23:03;;;;;;;6.13;3.40;;;12.00;45.90;;;;;;5094462;28;20028;-36
2021/04/24 09:25:39;;;;;;;7.63;3.42;;;13.00;43.30;;;;;;5094750;28;20035;-35
2021/04/24 09:28:07;;;;;;;5.63;2.35;;;14.00;41.00;;;;;;5093961;28;20524;-35
2021/04/24 09:30:36;;;;;;;6.80;2.63;;;14.10;38.50;;;;;;5094542;28;20101;-34
2021/04/24 09:33:07;;;;;;;3.75;2.20;;;12.50;41.30;;;;;;5094713;28;20036;-35
2021/04/24 09:35:53;;;;;;;4.63;1.88;;;12.20;41.60;;;;;;5093904;28;20425;-34
2021/04/24 09:38:24;;;;;;;4.38;2.80;;;11.90;42.80;;;;;;5094803;28;20052;-35
2021/04/24 09:41:25;;;;;;;4.45;2.10;;;12.60;41.60;;;;;;5094726;28;20471;-35
2021/04/24 09:44:00;;;;;;;5.47;1.88;;;12.60;39.70;;;;;;5094674;28;20095;-35
2021/04/24 09:46:52;;;;;;;4.13;1.83;;;12.40;40.20;;;;;;5094184;28;20024;-35
2021/04/24 09:49:18;;;;;;;3.80;1.80;;;12.70;39.80;;;;;;5093150;28;20048;-36
2021/04/24 09:51:51;;;;;;;3.75;2.00;;;12.50;39.80;;;;;;5092425;28;20035;-36
2021/04/24 09:54:18;;;;;;;3.22;1.90;;;13.60;38.50;;;;;;5094628;28;20050;-36
2021/04/24 09:56:56;;;;;;;4.45;2.17;;;13.90;37.00;;;;;;5094144;28;20020;-35
2021/04/24 09:59:21;;;;;;;4.72;2.38;;;13.10;39.00;;;;;;5094734;28;20027;-35
2021/04/24 10:01:47;;;;;;;4.40;2.58;;;13.30;39.00;;;;;;5094020;28;20020;-35
2021/04/24 10:04:13;;;;;;;3.47;2.33;;;13.80;38.00;;;;;;5093609;28;20460;-35
2021/04/24 10:06:40;;;;;;;5.43;2.35;;;13.30;39.10;;;;;;5093761;28;20019;-35
2021/04/24 10:09:13;;;;;;;6.93;2.85;;;13.10;40.30;;;;;;5093510;28;20028;-35
2021/04/24 10:11:42;;;;;;;3.33;2.33;;;13.40;40.10;;;;;;5093487;28;20103;-35
2021/04/24 10:14:07;;;;;;;6.00;2.38;;;13.20;39.40;;;;;;5093619;28;20035;-35
2021/04/24 10:16:43;;;;;;;6.78;2.78;;;13.30;39.40;;;;;;5093513;28;20479;-35
2021/04/24 10:19:14;;;;;;;6.78;2.47;;;13.30;39.60;;;;;;5093520;28;20031;-35
2021/04/24 10:21:41;;;;;;;6.53;3.08;;;13.60;39.00;;;;;;5093936;28;20418;-35
2021/04/24 10:24:08;;;;;;;5.50;2.33;;;14.60;37.20;;;;;;5093476;28;20027;-36
2021/04/24 10:26:35;;;;;;;8.68;3.47;;;14.90;36.40;;;;;;5093565;28;20027;-36
2021/04/24 10:29:04;;;;;;;6.40;2.90;;;15.20;36.40;;;;;;5093570;28;20027;-35
2021/04/24 10:31:31;;;;;;;4.20;2.92;;;15.40;36.10;;;;;;5093799;28;20027;-36
2021/04/24 10:33:59;;;;;;;5.60;2.90;;;15.90;34.80;;;;;;5093692;28;20024;-35
2021/04/24 10:36:26;;;;;;;4.97;2.75;;;15.30;36.40;;;;;;5094501;28;20028;-35
2021/04/24 10:38:52;;;;;;;5.72;3.13;;;15.00;36.00;;;;;;5093699;28;20547;-35
2021/04/24 10:41:33;;;;;;;4.90;2.70;;;14.70;36.70;;;;;;5093228;28;20051;-35
2021/04/24 10:44:00;;;;;;;;;;;14.80;36.70;;;;;;5093760;28;20035;-35
2021/04/24 10:46:35;;;;;;;6.07;3.88;;;15.20;36.00;;;;;;5093049;28;19911;-36
2021/04/24 10:49:30;;;;;;;6.18;3.40;;;15.00;36.70;;;;;;5092600;28;20052;-35
2021/04/24 10:51:57;;;;;;;4.65;3.60;;;15.20;35.90;;;;;;5092355;28;20525;-35
2021/04/24 10:54:24;;;;;;;7.57;3.05;;;15.50;36.00;;;;;;5092206;28;20054;-36
2021/04/24 10:56:50;;;;;;;4.95;2.70;;;15.60;35.00;;;;;;5092776;28;20074;-37
2021/04/24 10:59:32;;;;;;;8.35;3.47;;;15.40;34.50;;;;;;5093104;28;20047;-37
2021/04/24 11:02:13;;;;;;;3.97;2.35;;;15.10;35.80;;;;;;5093073;28;20027;-36
2021/04/24 11:04:40;;;;;;;4.28;3.28;;;15.10;35.90;;;;;;5075192;28;20024;-36
2021/04/24 11:07:18;;;;;;;5.25;3.05;;;14.60;37.00;;;;;;5094436;28;20073;-35
2021/04/24 11:09:45;;;;;;;8.70;3.13;;;14.60;36.50;;;;;;5096553;28;20012;-35
2021/04/24 11:12:12;;;;;;;5.43;3.28;;;14.40;37.10;;;;;;5096959;28;20032;-35
2021/04/24 11:14:40;;;;;;;4.95;3.60;;;14.80;36.80;;;;;;5097093;28;20081;-35
2021/04/24 11:17:11;;;;;;;7.50;4.88;;;15.20;36.00;;;;;;5096862;28;20055;-36
2021/04/24 11:19:44;;;;;;;;;;;15.30;36.10;;;;;;5095882;28;20061;-35
2021/04/24 11:22:33;;;;;;;5.75;2.63;;;15.50;36.00;;;;;;5097236;28;20260;-35
2021/04/24 11:25:28;;;;;;;9.13;3.85;;;15.90;34.70;;;;;;5096712;28;20016;-36
2021/04/24 11:28:10;;;;;;;8.75;3.80;;;16.30;33.60;;;;;;5095839;28;20536;-36
2021/04/24 11:30:56;;;;;;;4.80;2.80;;;16.70;33.00;;;;;;5096685;28;20482;-36
2021/04/24 11:33:44;;;;;;;4.78;3.13;;;17.20;32.40;;;;;;5096721;28;20410;-35
2021/04/24 11:36:18;;;;;;;7.53;4.10;;;15.40;35.20;;;;;;5095242;28;20102;-35
2021/04/24 11:41:37;;;;;;;8.27;3.85;;;14.50;37.20;;;;;;5096461;28;20058;-37
2021/04/24 11:44:08;;;;;;;;;;;14.70;37.60;;;;;;5096620;28;20095;-36
2021/04/24 11:46:38;;;;;;;5.47;3.30;;;15.10;37.00;;;;;;5095989;28;20355;-35
2021/04/24 11:49:10;;;;;;;12.60;4.43;;;15.50;36.30;;;;;;5095502;28;20053;-35
2021/04/24 11:51:47;;;;;;;6.43;3.45;;;16.30;33.40;;;;;;5096409;28;20028;-36
2021/04/24 11:54:32;;;;;;;7.47;3.22;;;16.30;32.90;;;;;;5096575;28;20024;-35
2021/04/24 11:57:00;;;;;;;5.75;3.22;;;15.40;34.80;;;;;;5096000;28;20028;-35
2021/04/24 11:59:33;;;;;;;5.30;3.10;;;15.00;33.90;;;;;;5095420;28;20035;-36
2021/04/24 12:02:03;;;;;;;5.63;2.83;;;15.00;34.90;;;;;;5096264;28;20367;-35
2021/04/24 12:04:36;;;;;;;9.60;3.17;;;14.60;35.10;;;;;;5094476;28;20016;-40
2021/04/24 12:07:09;;;;;;;6.03;3.42;;;14.50;35.90;;;;;;5096299;28;20438;-37
2021/04/24 12:10:05;;;;;;;7.57;3.88;;;14.80;35.80;;;;;;5095969;28;20052;-37
2021/04/24 12:12:37;;;;;;;9.50;4.13;;;14.70;36.10;;;;;;5090610;28;20047;-36
2021/04/24 12:15:19;;;;;;;6.20;4.15;;;15.00;35.60;;;;;;5095456;28;20484;-35
2021/04/24 12:18:02;;;;;;;8.00;3.40;;;14.50;35.80;;;;;;5093367;28;20024;-35
2021/04/24 12:20:44;;;;;;;5.45;2.90;;;14.50;35.50;;;;;;5093595;28;20388;-34
2021/04/24 12:23:13;;;;;;;5.78;3.33;;;14.60;35.90;;;;;;5095523;28;20028;-35
2021/04/24 12:25:42;;;;;;;7.30;3.88;;;14.30;36.50;;;;;;5095015;28;20380;-35
2021/04/24 12:28:10;;;;;;;10.55;3.90;;;14.70;36.40;;;;;;5094857;28;20063;-35
2021/04/24 12:30:37;;;;;;;9.48;3.90;;;15.30;35.00;;;;;;5094970;28;20027;-36
2021/04/24 12:33:03;;;;;;;8.63;4.20;;;16.20;34.40;;;;;;5095755;28;20031;-35
2021/04/24 12:35:31;;;;;;;13.38;4.03;;;15.80;34.60;;;;;;5095346;28;20024;-36
2021/04/24 12:38:03;;;;;;;9.32;4.75;;;15.80;35.30;;;;;;5093845;28;20028;-36
2021/04/24 12:40:30;;;;;;;5.78;3.88;;;16.60;33.80;;;;;;5095085;28;20078;-35
2021/04/24 12:43:08;;;;;;;8.25;4.35;;;17.00;32.00;;;;;;5095017;28;20060;-35
2021/04/24 12:45:39;;;;;;;14.93;3.97;;;16.30;31.60;;;;;;5095233;28;20024;-35
2021/04/24 12:48:12;;;;;;;6.93;3.75;;;15.80;32.80;;;;;;5094887;28;20024;-35
2021/04/24 12:50:39;;;;;;;6.43;4.50;;;15.10;33.70;;;;;;5095164;28;20122;-35
2021/04/24 12:53:07;;;;;;;6.82;3.95;;;14.60;35.10;;;;;;5095063;28;20027;-35
2021/04/24 12:55:34;;;;;;;11.68;4.43;;;14.30;36.10;;;;;;5095085;28;20436;-37
2021/04/24 12:58:02;;;;;;;5.97;4.10;;;14.60;35.40;;;;;;5094703;28;20027;-35